createdAt,value
2023-05-01T00:01:30.339Z,92836.00
2023-05-01T00:03:56.957Z,92828.31
2023-05-01T00:06:24.359Z,92829.41
2023-05-01T00:08:50.737Z,92834.19
2023-05-01T00:11:17.371Z,92838.94
2023-05-01T00:13:44.154Z,92832.38
2023-05-01T00:16:12.490Z,92839.25
2023-05-01T00:18:39.509Z,92832.13
2023-05-01T00:21:05.945Z,92836.91
2023-05-01T00:23:32.355Z,92903.63
2023-05-01T00:25:59.052Z,92901.25
2023-05-01T00:28:25.443Z,92980.09
2023-05-01T00:30:52.124Z,92970.34
2023-05-01T00:33:19.159Z,92960.84
2023-05-01T00:35:46.374Z,92956.09
2023-05-01T00:38:13.282Z,92956.94
2023-05-01T00:40:46.584Z,92951.91
2023-05-01T00:43:13.431Z,92951.91
2023-05-01T00:45:44.119Z,92952.16
2023-05-01T00:48:11.213Z,92958.50
2023-05-01T00:50:38.622Z,92953.22
2023-05-01T00:53:05.740Z,92942.94
2023-05-01T00:55:33.848Z,92940.31
2023-05-01T00:58:01.379Z,92932.41
2023-05-01T01:00:29.795Z,92940.06
2023-05-01T01:02:56.425Z,92937.69
2023-05-01T01:05:25.685Z,92936.13
2023-05-01T01:08:14.636Z,92928.22
2023-05-01T01:10:51.467Z,92918.69
2023-05-01T01:13:33.628Z,92919.22
2023-05-01T01:16:07.747Z,92908.69
2023-05-01T01:18:56.800Z,92913.44
2023-05-01T01:21:29.180Z,92904.50
2023-05-01T01:24:22.557Z,92898.13
2023-05-01T01:26:58.568Z,92905.00
2023-05-01T01:29:49.961Z,92901.28
2023-05-01T01:32:44.270Z,92892.84
2023-05-01T01:35:19.397Z,92880.72
2023-05-01T01:37:56.302Z,92876.47
2023-05-01T01:40:28.997Z,92864.59
2023-05-01T01:43:02.476Z,92870.38
2023-05-01T01:45:37.854Z,92861.91
2023-05-01T01:48:07.489Z,92847.13
2023-05-01T01:50:37.091Z,92850.53
2023-05-01T01:53:05.949Z,92839.44
2023-05-01T01:55:36.370Z,92835.22
2023-05-01T01:58:05.031Z,92831.53
2023-05-01T02:00:34.323Z,92827.59
2023-05-01T02:03:02.982Z,92826.28
2023-05-01T02:05:32.922Z,92819.94
2023-05-01T02:08:00.393Z,92804.59
2023-05-01T02:10:29.265Z,92802.47
2023-05-01T02:12:58.325Z,92789.75
2023-05-01T02:15:26.501Z,92790.06
2023-05-01T02:17:54.120Z,92782.91
2023-05-01T02:20:21.884Z,92775.53
2023-05-01T02:22:51.325Z,92773.38
2023-05-01T02:25:18.137Z,92765.97
2023-05-01T02:27:55.626Z,92761.22
2023-05-01T02:30:22.601Z,92762.25
2023-05-01T02:32:49.163Z,92760.97
2023-05-01T02:35:16.954Z,92763.31
2023-05-01T02:37:44.897Z,92770.19
2023-05-01T02:40:13.975Z,92766.47
2023-05-01T02:42:44.598Z,92759.34
2023-05-01T02:45:19.086Z,92760.66
2023-05-01T02:47:48.846Z,92768.53
2023-05-01T02:50:16.132Z,92763.72
2023-05-01T02:52:43.517Z,92763.16
2023-05-01T02:55:10.694Z,92759.69
2023-05-01T02:57:37.385Z,92746.25
2023-05-01T03:00:04.405Z,92745.13
2023-05-01T03:02:31.105Z,92747.75
2023-05-01T03:04:58.342Z,92724.94
2023-05-01T03:07:24.718Z,92720.66
2023-05-01T03:09:51.067Z,92719.88
2023-05-01T03:12:17.801Z,92698.41
2023-05-01T03:14:44.141Z,92694.59
2023-05-01T03:17:11.010Z,92692.53
2023-05-01T03:19:37.391Z,92690.94
2023-05-01T03:22:03.997Z,92697.03
2023-05-01T03:24:30.798Z,92690.22
2023-05-01T03:26:58.217Z,92695.28
2023-05-01T03:29:24.567Z,92690.00
2023-05-01T03:31:51.341Z,92693.94
2023-05-01T03:34:17.690Z,92696.28
2023-05-01T03:36:44.013Z,92691.78
2023-05-01T03:39:10.672Z,92691.28
2023-05-01T03:41:36.994Z,92696.16
2023-05-01T03:44:03.740Z,92695.28
2023-05-01T03:46:30.600Z,92679.00
2023-05-01T03:48:57.168Z,92660.16
2023-05-01T03:51:23.596Z,92651.19
2023-05-01T03:53:50.450Z,92637.69
2023-05-01T03:56:16.811Z,92634.69
2023-05-01T03:58:43.667Z,92624.91
2023-05-01T04:01:10.480Z,92612.69
2023-05-01T04:03:36.860Z,92594.16
2023-05-01T04:06:03.496Z,92583.59
2023-05-01T04:08:30.293Z,92569.00
2023-05-01T04:10:57.748Z,92567.66
2023-05-01T04:13:24.117Z,92561.84
2023-05-01T04:15:51.133Z,92567.38
2023-05-01T04:18:17.522Z,92557.41
2023-05-01T04:20:43.885Z,92542.53
2023-05-01T04:23:10.771Z,92540.25
2023-05-01T04:25:37.259Z,92536.03
2023-05-01T04:28:04.485Z,92544.53
2023-05-01T04:30:32.062Z,92534.09
2023-05-01T04:32:58.652Z,92530.75
2023-05-01T04:35:25.851Z,92535.53
2023-05-01T04:37:52.925Z,92526.38
2023-05-01T04:40:19.296Z,92514.34
2023-05-01T04:42:46.080Z,92525.72
2023-05-01T04:45:12.766Z,92537.72
2023-05-01T04:47:39.192Z,92532.28
2023-05-01T04:50:06.288Z,92531.59
2023-05-01T04:52:33.196Z,92526.13
2023-05-01T04:55:00.063Z,92517.81
2023-05-01T04:57:26.496Z,92496.75
2023-05-01T04:59:52.847Z,92495.19
2023-05-01T05:02:19.848Z,92480.00
2023-05-01T05:04:46.205Z,92478.84
2023-05-01T05:07:13.289Z,92478.63
2023-05-01T05:09:39.990Z,92496.56
2023-05-01T05:12:06.432Z,92514.69
2023-05-01T05:14:33.233Z,92531.34
2023-05-01T05:17:00.081Z,92544.66
2023-05-01T05:19:26.528Z,92561.25
2023-05-01T05:21:52.899Z,92583.16
2023-05-01T05:24:20.287Z,92597.22
2023-05-01T05:26:46.615Z,92607.28
2023-05-01T05:29:13.432Z,92623.16
2023-05-01T05:31:39.821Z,92633.16
2023-05-01T05:34:06.194Z,92653.88
2023-05-01T05:36:32.913Z,92662.38
2023-05-01T05:38:59.994Z,92672.97
2023-05-01T05:41:27.010Z,92693.66
2023-05-01T05:43:54.241Z,92708.13
2023-05-01T05:46:21.231Z,92713.88
2023-05-01T05:48:47.720Z,92731.84
2023-05-01T05:51:14.468Z,92749.78
2023-05-01T05:53:40.841Z,92771.22
2023-05-01T05:56:07.515Z,92782.44
2023-05-01T05:58:34.432Z,92793.94
2023-05-01T06:01:01.171Z,92796.53
2023-05-01T06:03:27.753Z,92808.03
2023-05-01T06:05:54.404Z,92825.41
2023-05-01T06:08:21.203Z,92837.84
2023-05-01T06:10:47.661Z,92864.31
2023-05-01T06:13:15.019Z,92851.91
2023-05-01T06:15:42.334Z,92862.97
2023-05-01T06:18:09.294Z,92858.59
2023-05-01T06:20:36.693Z,92857.03
2023-05-01T06:23:03.408Z,92859.19
2023-05-01T06:25:30.053Z,92849.75
2023-05-01T06:27:56.866Z,92841.16
2023-05-01T06:30:23.612Z,92828.03
2023-05-01T06:32:50.164Z,92802.97
2023-05-01T06:35:16.844Z,92795.56
2023-05-01T06:37:43.550Z,92811.25
2023-05-01T06:40:10.824Z,92805.97
2023-05-01T06:42:38.661Z,92798.03
2023-05-01T06:45:06.520Z,92793.88
2023-05-01T06:47:33.507Z,92811.75
2023-05-01T06:50:00.490Z,92814.59
2023-05-01T06:52:27.865Z,92805.41
2023-05-01T06:54:54.594Z,92797.84
2023-05-01T06:57:20.918Z,92793.56
2023-05-01T06:59:47.395Z,92787.09
2023-05-01T07:02:14.353Z,92758.69
2023-05-01T07:04:40.956Z,92751.72
2023-05-01T07:07:07.303Z,92742.22
2023-05-01T07:09:34.272Z,92750.25
2023-05-01T07:12:00.597Z,92757.34
2023-05-01T07:14:26.930Z,92741.63
2023-05-01T07:16:54.088Z,92726.88
2023-05-01T07:19:20.546Z,92715.50
2023-05-01T07:21:46.948Z,92689.91
2023-05-01T07:24:13.684Z,92693.09
2023-05-01T07:26:40.523Z,92684.78
2023-05-01T07:29:06.842Z,92663.50
2023-05-01T07:31:33.219Z,92646.25
2023-05-01T07:34:00.760Z,92633.06
2023-05-01T07:36:27.113Z,92623.75
2023-05-01T07:38:53.981Z,92644.88
2023-05-01T07:41:21.662Z,92644.28
2023-05-01T07:43:48.088Z,92647.91
2023-05-01T07:46:16.151Z,92667.78
2023-05-01T07:48:42.626Z,92639.06
2023-05-01T07:51:08.938Z,92614.00
2023-05-01T07:53:35.617Z,92583.91
2023-05-01T07:56:09.050Z,92550.81
2023-05-01T07:58:36.995Z,92521.13
2023-05-01T08:01:03.958Z,92480.78
2023-05-01T08:03:30.999Z,92489.38
2023-05-01T08:05:58.060Z,92479.09
2023-05-01T08:08:24.798Z,92449.09
2023-05-01T08:10:51.815Z,92435.84
2023-05-01T08:13:19.029Z,92398.38
2023-05-01T08:15:48.612Z,92427.50
2023-05-01T08:18:21.599Z,92428.53
2023-05-01T08:20:48.579Z,92395.19
2023-05-01T08:23:18.534Z,92406.06
2023-05-01T08:25:51.112Z,92378.97
2023-05-01T08:28:20.990Z,92389.56
2023-05-01T08:30:49.269Z,92401.75
2023-05-01T08:33:16.690Z,92382.28
2023-05-01T08:35:43.207Z,92402.38
2023-05-01T08:38:11.470Z,92405.06
2023-05-01T08:40:39.292Z,92383.22
2023-05-01T08:43:05.697Z,92397.91
2023-05-01T08:45:36.049Z,92380.59
2023-05-01T08:48:07.550Z,92361.50
2023-05-01T08:50:37.851Z,92359.47
2023-05-01T08:53:05.635Z,92345.53
2023-05-01T08:55:34.838Z,92363.69
2023-05-01T08:58:02.573Z,92383.25
2023-05-01T09:00:29.497Z,92416.19
2023-05-01T09:02:57.574Z,92437.41
2023-05-01T09:05:24.064Z,92476.47
2023-05-01T09:07:50.458Z,92519.06
2023-05-01T09:10:18.954Z,92479.25
2023-05-01T09:12:49.528Z,92453.59
2023-05-01T09:15:15.979Z,92464.47
2023-05-01T09:17:43.395Z,92487.47
2023-05-01T09:20:10.457Z,92464.69
2023-05-01T09:22:37.329Z,92429.13
2023-05-01T09:25:04.203Z,92386.03
2023-05-01T09:27:35.678Z,92363.72
2023-05-01T09:30:02.436Z,92457.34
2023-05-01T09:32:29.203Z,92530.94
2023-05-01T09:35:09.500Z,92566.03
2023-05-01T09:37:36.018Z,92564.19
2023-05-01T09:40:14.462Z,92533.28
2023-05-01T09:42:49.252Z,92566.16
2023-05-01T09:45:16.729Z,92527.09
2023-05-01T09:47:43.902Z,92496.44
2023-05-01T09:50:29.283Z,92475.34
2023-05-01T09:52:55.624Z,92470.00
2023-05-01T09:55:25.341Z,92406.03
2023-05-01T09:57:53.291Z,92362.63
2023-05-01T10:00:21.901Z,92300.97
2023-05-01T10:02:49.707Z,92381.03
2023-05-01T10:05:17.446Z,92456.38
2023-05-01T10:08:04.851Z,92465.63
2023-05-01T10:10:31.706Z,92454.91
2023-05-01T10:13:21.357Z,92481.28
2023-05-01T10:15:49.494Z,92420.59
2023-05-01T10:18:17.029Z,92356.19
2023-05-01T10:20:43.491Z,92376.19
2023-05-01T10:23:11.375Z,92415.31
2023-05-01T10:25:40.016Z,92526.13
2023-05-01T10:28:06.562Z,92542.72
2023-05-01T10:30:35.938Z,92518.78
2023-05-01T10:33:02.888Z,92556.06
2023-05-01T10:35:33.891Z,92496.41
2023-05-01T10:38:04.978Z,92428.69
2023-05-01T10:40:43.931Z,92382.06
2023-05-01T10:43:16.766Z,92314.09
2023-05-01T10:45:48.229Z,92389.22
2023-05-01T10:48:39.450Z,92413.06
2023-05-01T10:51:14.757Z,92343.00
2023-05-01T10:53:46.045Z,92293.88
2023-05-01T10:56:21.665Z,92304.03
2023-05-01T10:59:04.623Z,92314.22
2023-05-01T11:01:35.664Z,92358.47
2023-05-01T11:04:27.974Z,92400.19
2023-05-01T11:07:08.131Z,92305.56
2023-05-01T11:09:39.613Z,92368.28
2023-05-01T11:12:07.009Z,92318.09
2023-05-01T11:14:52.681Z,92185.00
2023-05-01T11:17:40.912Z,92338.53
2023-05-01T11:20:29.457Z,92374.38
2023-05-01T11:22:57.608Z,92348.69
2023-05-01T11:25:33.443Z,92394.44
2023-05-01T11:28:01.944Z,92391.75
2023-05-01T11:30:38.872Z,92433.06
2023-05-01T11:33:07.057Z,92397.53
2023-05-01T11:35:35.122Z,92319.22
2023-05-01T11:38:01.631Z,92238.50
2023-05-01T11:40:30.750Z,92279.41
2023-05-01T11:43:02.594Z,92231.84
2023-05-01T11:45:29.726Z,92304.56
2023-05-01T11:47:56.600Z,92282.28
2023-05-01T11:50:32.745Z,92306.03
2023-05-01T11:52:59.071Z,92186.56
2023-05-01T11:55:33.845Z,92117.97
2023-05-01T11:58:01.343Z,92144.34
2023-05-01T12:00:30.038Z,92659.50
2023-05-01T12:03:04.839Z,92786.09
2023-05-01T12:05:32.487Z,92855.00
2023-05-01T12:08:20.320Z,92730.78
2023-05-01T12:10:57.963Z,92590.03
2023-05-01T12:13:26.401Z,92616.31
2023-05-01T12:15:54.975Z,92516.53
2023-05-01T12:18:22.442Z,92436.38
2023-05-01T12:20:52.055Z,92335.81
2023-05-01T12:23:20.717Z,92306.78
2023-05-01T12:25:47.534Z,92299.03
2023-05-01T12:28:19.881Z,92532.72
2023-05-01T12:30:50.154Z,92469.13
2023-05-01T12:33:21.006Z,92372.88
2023-05-01T12:35:50.197Z,92544.19
2023-05-01T12:38:18.430Z,92495.59
2023-05-01T12:41:00.253Z,92428.59
2023-05-01T12:43:38.704Z,92395.31
2023-05-01T12:46:06.265Z,92561.31
2023-05-01T12:48:35.599Z,92545.88
2023-05-01T12:51:01.990Z,92562.66
2023-05-01T12:53:30.093Z,92355.22
2023-05-01T12:55:58.057Z,92411.53
2023-05-01T12:58:38.324Z,92367.44
2023-05-01T13:01:05.262Z,92416.84
2023-05-01T13:03:32.103Z,92585.84
2023-05-01T13:06:04.146Z,92482.06
2023-05-01T13:08:33.149Z,92498.81
2023-05-01T13:11:10.431Z,92431.66
2023-05-01T13:13:37.879Z,92409.75
2023-05-01T13:16:09.945Z,92404.69
2023-05-01T13:18:44.787Z,92411.50
2023-05-01T13:21:13.863Z,92378.94
2023-05-01T13:23:40.579Z,92368.41
2023-05-01T13:26:07.917Z,92348.25
2023-05-01T13:28:36.386Z,92475.78
2023-05-01T13:31:03.443Z,92552.84
2023-05-01T13:33:31.675Z,92645.56
2023-05-01T13:35:58.153Z,92502.41
2023-05-01T13:38:25.039Z,92446.41
2023-05-01T13:40:51.951Z,92429.78
2023-05-01T13:43:18.354Z,92453.88
2023-05-01T13:45:44.757Z,92437.47
2023-05-01T13:48:11.777Z,92439.56
2023-05-01T13:50:40.919Z,92392.91
2023-05-01T13:53:07.263Z,92394.78
2023-05-01T13:55:33.616Z,92359.72
2023-05-01T13:58:01.387Z,92376.19
2023-05-01T14:00:27.782Z,92412.22
2023-05-01T14:02:56.333Z,92374.38
2023-05-01T14:05:28.493Z,92348.13
2023-05-01T14:07:58.350Z,92341.09
2023-05-01T14:10:28.124Z,92321.94
2023-05-01T14:12:59.108Z,92306.00
2023-05-01T14:15:25.995Z,92322.16
2023-05-01T14:17:53.537Z,92333.63
2023-05-01T14:20:20.036Z,92338.75
2023-05-01T14:22:53.227Z,92297.28
2023-05-01T14:25:30.957Z,92326.25
2023-05-01T14:27:59.281Z,92292.91
2023-05-01T14:30:30.203Z,92373.25
2023-05-01T14:32:57.479Z,92376.84
2023-05-01T14:35:24.671Z,92374.50
2023-05-01T14:37:51.043Z,92373.47
2023-05-01T14:40:19.001Z,92405.16
2023-05-01T14:42:45.527Z,92400.59
2023-05-01T14:45:14.331Z,92419.41
2023-05-01T14:47:41.891Z,92401.34
2023-05-01T14:50:11.679Z,92418.31
2023-05-01T14:52:39.167Z,92392.31
2023-05-01T14:55:06.768Z,92414.75
2023-05-01T14:57:33.137Z,92414.94
2023-05-01T14:59:59.603Z,92410.63
2023-05-01T15:02:26.458Z,92424.88
2023-05-01T15:04:52.956Z,92410.28
2023-05-01T15:07:19.266Z,92437.69
2023-05-01T15:09:46.861Z,92443.38
2023-05-01T15:12:13.242Z,92423.00
2023-05-01T15:14:39.573Z,92437.50
2023-05-01T15:17:06.254Z,92439.94
2023-05-01T15:19:32.650Z,92446.72
2023-05-01T15:21:58.978Z,92442.38
2023-05-01T15:24:25.784Z,92433.13
2023-05-01T15:26:52.115Z,92459.31
2023-05-01T15:29:18.439Z,92445.31
2023-05-01T15:31:45.132Z,92461.34
2023-05-01T15:34:11.468Z,92465.91
2023-05-01T15:36:38.602Z,92489.41
2023-05-01T15:39:11.051Z,92460.00
2023-05-01T15:41:38.293Z,92494.50
2023-05-01T15:44:08.424Z,92476.22
2023-05-01T15:46:34.819Z,92451.06
2023-05-01T15:49:01.301Z,92435.59
2023-05-01T15:51:27.673Z,92438.38
2023-05-01T15:53:54.027Z,92439.47
2023-05-01T15:56:21.806Z,92433.25
2023-05-01T15:58:48.133Z,92421.66
2023-05-01T16:01:16.090Z,92475.94
2023-05-01T16:03:48.534Z,92467.78
2023-05-01T16:06:18.580Z,92468.16
2023-05-01T16:08:44.979Z,92448.59
2023-05-01T16:11:12.540Z,92451.16
2023-05-01T16:13:40.583Z,92431.88
2023-05-01T16:16:19.078Z,92433.72
2023-05-01T16:18:46.275Z,92441.28
2023-05-01T16:21:19.731Z,92464.03
2023-05-01T16:23:46.597Z,92465.00
2023-05-01T16:26:13.467Z,92481.38
2023-05-01T16:28:41.473Z,92473.53
2023-05-01T16:31:23.447Z,92465.72
2023-05-01T16:33:53.319Z,92463.22
2023-05-01T16:36:21.779Z,92493.34
2023-05-01T16:38:48.188Z,92487.75
2023-05-01T16:41:17.722Z,92511.50
2023-05-01T16:43:45.834Z,92545.09
2023-05-01T16:46:15.291Z,92541.63
2023-05-01T16:48:42.067Z,92543.06
2023-05-01T16:51:10.165Z,92536.78
2023-05-01T16:53:37.006Z,92536.34
2023-05-01T16:56:04.702Z,92533.75
2023-05-01T16:58:31.206Z,92540.16
2023-05-01T17:00:58.059Z,92542.03
2023-05-01T17:03:24.433Z,92547.03
2023-05-01T17:05:51.262Z,92569.53
2023-05-01T17:08:17.642Z,92572.38
2023-05-01T17:10:44.934Z,92586.13
2023-05-01T17:13:13.045Z,92597.38
2023-05-01T17:15:39.379Z,92624.94
2023-05-01T17:18:06.093Z,92633.50
2023-05-01T17:20:32.539Z,92667.16
2023-05-01T17:22:59.146Z,92638.50
2023-05-01T17:25:25.508Z,92616.56
2023-05-01T17:27:51.911Z,92582.34
2023-05-01T17:30:18.734Z,92559.38
2023-05-01T17:32:45.360Z,92552.03
2023-05-01T17:35:11.780Z,92555.16
2023-05-01T17:37:41.052Z,92542.59
2023-05-01T17:40:08.898Z,92525.56
2023-05-01T17:42:36.858Z,92514.78
2023-05-01T17:45:07.647Z,92522.25
2023-05-01T17:47:34.483Z,92534.13
2023-05-01T17:50:04.573Z,92568.09
2023-05-01T17:52:31.113Z,92600.88
2023-05-01T17:54:57.610Z,92606.66
2023-05-01T17:57:24.322Z,92592.50
2023-05-01T17:59:51.289Z,92555.38
2023-05-01T18:02:17.746Z,92541.66
2023-05-01T18:04:44.151Z,92529.44
2023-05-01T18:07:11.137Z,92546.38
2023-05-01T18:09:37.633Z,92572.81
2023-05-01T18:12:04.130Z,92585.09
2023-05-01T18:14:31.035Z,92593.44
2023-05-01T18:16:57.988Z,92597.19
2023-05-01T18:19:24.389Z,92593.97
2023-05-01T18:21:51.689Z,92612.34
2023-05-01T18:24:18.011Z,92628.31
2023-05-01T18:26:44.329Z,92674.53
2023-05-01T18:29:11.034Z,92648.19
2023-05-01T18:31:38.074Z,92628.84
2023-05-01T18:34:06.371Z,92586.28
2023-05-01T18:36:33.344Z,92574.56
2023-05-01T18:39:00.834Z,92549.97
2023-05-01T18:41:27.346Z,92477.66
2023-05-01T18:43:57.113Z,92391.63
2023-05-01T18:46:24.392Z,92324.97
2023-05-01T18:48:51.093Z,92281.63
2023-05-01T18:51:17.575Z,92241.97
2023-05-01T18:53:44.457Z,92216.72
2023-05-01T18:56:10.825Z,91338.69
2023-05-01T18:58:37.296Z,91593.09
2023-05-01T19:01:03.632Z,91721.13
2023-05-01T19:03:30.364Z,91785.97
2023-05-01T19:05:56.788Z,91839.44
2023-05-01T19:08:23.182Z,91881.22
2023-05-01T19:10:49.927Z,91917.69
2023-05-01T19:13:16.278Z,91929.69
2023-05-01T19:15:44.070Z,91963.69
2023-05-01T19:18:10.727Z,91991.91
2023-05-01T19:20:37.196Z,92031.94
2023-05-01T19:23:03.902Z,92042.66
2023-05-01T19:25:33.146Z,92041.13
2023-05-01T19:28:01.897Z,92056.22
2023-05-01T19:30:28.264Z,92060.47
2023-05-01T19:32:55.054Z,92105.50
2023-05-01T19:35:21.643Z,92191.56
2023-05-01T19:37:53.119Z,96735.09
2023-05-01T19:40:19.870Z,96786.63
2023-05-01T19:42:46.607Z,96785.59
2023-05-01T19:45:13.107Z,96791.72
2023-05-01T19:47:39.749Z,96793.72
2023-05-01T19:50:07.680Z,96786.44
2023-05-01T19:52:34.066Z,96776.28
2023-05-01T19:55:05.033Z,96760.81
2023-05-01T19:57:31.971Z,96761.13
2023-05-01T19:59:59.030Z,96744.31
2023-05-01T20:02:25.787Z,96725.47
2023-05-01T20:04:52.635Z,96727.34
2023-05-01T20:07:19.000Z,96722.03
2023-05-01T20:09:45.840Z,96715.53
2023-05-01T20:12:12.655Z,96708.81
2023-05-01T20:14:39.024Z,96698.03
2023-05-01T20:17:07.585Z,96680.84
2023-05-01T20:19:34.054Z,96643.28
2023-05-01T20:22:00.413Z,96638.78
2023-05-01T20:24:27.094Z,96631.22
2023-05-01T20:26:56.159Z,96616.13
2023-05-01T20:29:22.492Z,96612.25
2023-05-01T20:31:51.754Z,96603.88
2023-05-01T20:34:19.049Z,96592.66
2023-05-01T20:36:45.589Z,96595.53
2023-05-01T20:39:12.575Z,96586.50
2023-05-01T20:41:38.884Z,96577.13
2023-05-01T20:44:05.244Z,96578.38
2023-05-01T20:46:31.939Z,96579.97
2023-05-01T20:48:58.279Z,96561.63
2023-05-01T20:51:27.588Z,96568.78
2023-05-01T20:53:53.908Z,96557.97
2023-05-01T20:56:20.647Z,96547.16
2023-05-01T20:58:47.584Z,96554.72
2023-05-01T21:01:13.912Z,96540.91
2023-05-01T21:03:40.550Z,96540.72
2023-05-01T21:06:07.344Z,96543.38
2023-05-01T21:08:33.900Z,96534.59
2023-05-01T21:11:01.170Z,96528.50
2023-05-01T21:13:28.413Z,96527.81
2023-05-01T21:15:54.856Z,96521.88
2023-05-01T21:18:21.389Z,96529.03
2023-05-01T21:20:49.320Z,96524.53
2023-05-01T21:23:16.931Z,96525.94
2023-05-01T21:25:43.919Z,96527.16
2023-05-01T21:28:14.466Z,96529.81
2023-05-01T21:30:41.129Z,96518.78
2023-05-01T21:33:12.847Z,96519.56
2023-05-01T21:35:43.023Z,96522.03
2023-05-01T21:38:10.010Z,96519.97
2023-05-01T21:40:38.164Z,96517.56
2023-05-01T21:43:06.382Z,96519.81
2023-05-01T21:45:34.271Z,96526.94
2023-05-01T21:48:00.671Z,96510.56
2023-05-01T21:50:34.255Z,96510.97
2023-05-01T21:53:00.601Z,96509.69
2023-05-01T21:55:26.916Z,96504.00
2023-05-01T21:57:53.548Z,96499.28
2023-05-01T22:00:20.769Z,96498.63
2023-05-01T22:02:50.325Z,96506.72
2023-05-01T22:05:19.806Z,96514.03
2023-05-01T22:07:47.076Z,96513.97
2023-05-01T22:10:16.161Z,96504.91
2023-05-01T22:12:43.890Z,96520.31
2023-05-01T22:15:11.995Z,96516.97
2023-05-01T22:17:39.645Z,96518.16
2023-05-01T22:20:09.701Z,96514.84
2023-05-01T22:22:36.918Z,96527.84
2023-05-01T22:25:04.491Z,96525.03
2023-05-01T22:27:31.591Z,96531.06
2023-05-01T22:29:58.254Z,96544.69
2023-05-01T22:32:24.975Z,96542.41
2023-05-01T22:34:51.748Z,96552.31
2023-05-01T22:37:19.360Z,96555.97
2023-05-01T22:39:45.739Z,96582.91
2023-05-01T22:42:12.482Z,96608.28
2023-05-01T22:44:39.194Z,96617.97
2023-05-01T22:47:06.301Z,96619.16
2023-05-01T22:49:33.030Z,96625.00
2023-05-01T22:51:59.696Z,96642.25
2023-05-01T22:54:26.033Z,96640.94
2023-05-01T22:56:52.441Z,96642.97
2023-05-01T22:59:19.420Z,96658.53
2023-05-01T23:01:46.122Z,96661.94
2023-05-01T23:04:13.283Z,96720.06
2023-05-01T23:06:40.179Z,96719.25
2023-05-01T23:09:07.134Z,96703.31
2023-05-01T23:11:34.512Z,96707.31
2023-05-01T23:14:01.499Z,96695.38
2023-05-01T23:16:37.580Z,96697.91
2023-05-01T23:19:04.875Z,96703.41
2023-05-01T23:21:31.462Z,96701.44
2023-05-01T23:23:57.804Z,96697.34
2023-05-01T23:26:26.387Z,96694.06
2023-05-01T23:28:53.352Z,96684.69
2023-05-01T23:31:25.744Z,96679.78
2023-05-01T23:33:53.280Z,96676.84
2023-05-01T23:36:20.516Z,96669.28
2023-05-01T23:38:47.696Z,96666.19
2023-05-01T23:41:15.553Z,96676.09
2023-05-01T23:43:42.568Z,96668.63
2023-05-01T23:46:09.165Z,96669.81
2023-05-01T23:48:36.506Z,96664.06
2023-05-01T23:51:03.892Z,96668.09
2023-05-01T23:53:30.352Z,96663.16
2023-05-01T23:55:56.848Z,96658.50
2023-05-01T23:58:24.045Z,96654.09
